createdAt,value
2019-04-25T00:00:48.653Z,13.30
2019-04-25T00:03:22.210Z,13.40
2019-04-25T00:05:52.846Z,13.50
2019-04-25T00:08:23.689Z,13.40
2019-04-25T00:10:54.149Z,13.30
2019-04-25T00:13:24.970Z,13.20
2019-04-25T00:15:55.514Z,13.00
2019-04-25T00:18:25.901Z,12.90
2019-04-25T00:20:57.925Z,12.80
2019-04-25T00:23:28.352Z,12.70
2019-04-25T00:26:11.218Z,12.70
2019-04-25T00:28:44.337Z,12.60
2019-04-25T00:31:15.078Z,12.70
2019-04-25T00:33:46.031Z,12.50
2019-04-25T00:36:16.580Z,12.50
2019-04-25T00:38:48.223Z,12.60
2019-04-25T00:41:19.106Z,12.60
2019-04-25T00:43:50.061Z,12.50
2019-04-25T00:46:22.523Z,12.60
2019-04-25T00:48:53.239Z,12.40
2019-04-25T00:51:23.939Z,12.30
2019-04-25T00:53:54.816Z,12.20
2019-04-25T00:56:25.499Z,12.10
2019-04-25T00:59:03.227Z,12.00
2019-04-25T01:01:41.402Z,11.90
2019-04-25T01:04:13.399Z,11.80
2019-04-25T01:06:44.000Z,11.90
2019-04-25T01:09:16.303Z,11.90
2019-04-25T01:11:46.755Z,11.80
2019-04-25T01:14:17.171Z,11.60
2019-04-25T01:16:48.568Z,11.60
2019-04-25T01:19:19.236Z,11.50
2019-04-25T01:21:49.689Z,11.60
2019-04-25T01:24:21.107Z,11.50
2019-04-25T01:26:51.684Z,11.50
2019-04-25T01:29:23.470Z,11.40
2019-04-25T01:31:54.460Z,11.40
2019-04-25T01:34:36.331Z,11.50
2019-04-25T01:37:11.405Z,11.60
2019-04-25T01:39:44.202Z,11.40
2019-04-25T01:42:20.302Z,11.40
2019-04-25T01:44:53.824Z,11.30
2019-04-25T01:47:24.791Z,11.10
2019-04-25T01:49:55.557Z,11.20
2019-04-25T01:52:26.884Z,11.10
2019-04-25T01:54:58.907Z,10.90
2019-04-25T01:57:29.486Z,10.80
2019-04-25T02:00:00.085Z,10.80
2019-04-25T02:02:30.682Z,10.60
2019-04-25T02:05:01.146Z,10.50
2019-04-25T02:07:33.282Z,10.50
2019-04-25T02:10:06.560Z,10.60
2019-04-25T02:12:38.559Z,10.50
2019-04-25T02:15:09.139Z,10.40
2019-04-25T02:17:39.604Z,10.30
2019-04-25T02:20:10.155Z,10.40
2019-04-25T02:22:40.598Z,10.30
2019-04-25T02:25:10.986Z,10.20
2019-04-25T02:27:41.402Z,10.10
2019-04-25T02:30:15.441Z,10.20
2019-04-25T02:32:45.968Z,10.30
2019-04-25T02:35:16.815Z,10.40
2019-04-25T02:37:47.229Z,10.40
2019-04-25T02:40:23.823Z,10.50
2019-04-25T02:42:55.830Z,10.70
2019-04-25T02:45:44.212Z,10.80
2019-04-25T02:48:25.348Z,10.90
2019-04-25T02:51:01.116Z,11.10
2019-04-25T02:53:37.655Z,11.40
2019-04-25T02:56:27.469Z,11.70
2019-04-25T02:58:40.776Z,12.20
2019-04-25T03:01:19.347Z,12.80
2019-04-25T03:03:45.076Z,13.40
2019-04-25T03:06:15.483Z,14.00
2019-04-25T03:08:54.024Z,14.60
2019-04-25T03:11:24.492Z,15.30
2019-04-25T03:13:55.549Z,16.00
2019-04-25T03:16:26.150Z,16.50
2019-04-25T03:19:16.048Z,16.70
2019-04-25T03:21:48.243Z,17.10
2019-04-25T03:24:18.758Z,17.70
2019-04-25T03:26:53.203Z,18.30
2019-04-25T03:29:24.764Z,18.40
2019-04-25T03:31:56.404Z,19.10
2019-04-25T03:34:26.955Z,19.30
2019-04-25T03:36:57.871Z,19.40
2019-04-25T03:39:30.045Z,19.70
2019-04-25T03:42:02.216Z,20.20
2019-04-25T03:44:33.796Z,20.20
2019-04-25T03:47:08.669Z,20.20
2019-04-25T03:49:40.883Z,20.60
2019-04-25T03:52:12.232Z,20.80
2019-04-25T03:54:43.646Z,20.70
2019-04-25T03:57:14.645Z,20.80
2019-04-25T03:59:50.438Z,21.20
2019-04-25T04:02:23.465Z,22.00
2019-04-25T04:04:59.704Z,21.10
2019-04-25T04:07:30.210Z,21.80
2019-04-25T04:10:00.705Z,22.00
2019-04-25T04:12:33.915Z,22.00
2019-04-25T04:15:10.413Z,22.30
2019-04-25T04:18:01.439Z,22.50
2019-04-25T04:20:36.442Z,22.50
2019-04-25T04:23:14.368Z,23.20
2019-04-25T04:25:45.093Z,22.30
2019-04-25T04:28:16.024Z,22.60
2019-04-25T04:30:46.651Z,22.60
2019-04-25T04:33:29.472Z,21.80
2019-04-25T04:35:49.148Z,22.20
2019-04-25T04:38:21.021Z,22.10
2019-04-25T04:40:55.109Z,23.10
2019-04-25T04:43:25.760Z,23.40
2019-04-25T04:45:58.107Z,23.70
2019-04-25T04:48:54.003Z,24.60
2019-04-25T04:51:37.428Z,23.10
2019-04-25T04:54:11.029Z,23.30
2019-04-25T04:56:41.446Z,23.60
2019-04-25T04:59:12.859Z,23.40
2019-04-25T05:02:03.334Z,23.90
2019-04-25T05:04:37.240Z,24.50
2019-04-25T05:07:11.980Z,23.20
2019-04-25T05:09:44.869Z,24.40
2019-04-25T05:12:17.486Z,23.90
2019-04-25T05:14:48.078Z,23.50
2019-04-25T05:17:21.860Z,23.80
2019-04-25T05:19:53.698Z,23.70
2019-04-25T05:22:33.268Z,23.40
2019-04-25T05:25:04.789Z,23.60
2019-04-25T05:27:45.973Z,24.20
2019-04-25T05:30:10.122Z,24.00
2019-04-25T05:32:40.687Z,24.40
2019-04-25T05:35:11.166Z,24.00
2019-04-25T05:37:43.608Z,24.10
2019-04-25T05:40:15.765Z,24.10
2019-04-25T05:42:50.821Z,24.70
2019-04-25T05:45:28.398Z,25.00
2019-04-25T05:47:59.013Z,24.70
2019-04-25T05:50:29.381Z,25.60
2019-04-25T05:53:00.209Z,25.80
2019-04-25T05:55:30.639Z,25.30
2019-04-25T05:58:01.233Z,24.80
2019-04-25T06:00:31.637Z,25.20
2019-04-25T06:03:03.444Z,26.00
2019-04-25T06:05:37.825Z,26.50
2019-04-25T06:08:10.933Z,27.10
2019-04-25T06:11:04.045Z,26.80
2019-04-25T06:13:43.371Z,25.60
2019-04-25T06:16:20.204Z,25.50
2019-04-25T06:18:52.284Z,26.00
2019-04-25T06:21:23.572Z,26.30
2019-04-25T06:24:07.883Z,26.50
2019-04-25T06:26:40.116Z,26.40
2019-04-25T06:29:10.832Z,25.90
2019-04-25T06:31:43.913Z,26.70
2019-04-25T06:34:14.811Z,26.80
2019-04-25T06:36:45.270Z,26.80
2019-04-25T06:39:17.346Z,26.40
2019-04-25T06:41:47.791Z,25.60
2019-04-25T06:44:20.658Z,24.80
2019-04-25T06:47:03.700Z,24.50
2019-04-25T06:49:40.049Z,23.80
2019-04-25T06:52:13.840Z,22.80
2019-04-25T06:54:48.884Z,22.20
2019-04-25T06:57:22.018Z,21.40
2019-04-25T06:59:55.691Z,21.30
2019-04-25T07:02:28.892Z,21.30
2019-04-25T07:04:59.975Z,21.10
2019-04-25T07:07:32.033Z,20.90
2019-04-25T07:10:09.321Z,20.80
2019-04-25T07:12:39.777Z,20.70
2019-04-25T07:15:13.799Z,20.50
2019-04-25T07:17:45.830Z,20.10
2019-04-25T07:20:16.803Z,20.20
2019-04-25T07:22:51.239Z,20.20
2019-04-25T07:25:26.347Z,20.20
2019-04-25T07:28:23.892Z,20.20
2019-04-25T07:30:54.491Z,20.40
2019-04-25T07:33:29.684Z,20.60
2019-04-25T07:36:01.751Z,20.60
2019-04-25T07:38:33.793Z,20.80
2019-04-25T07:41:07.008Z,20.80
2019-04-25T07:43:39.052Z,20.80
2019-04-25T07:46:13.359Z,20.90
2019-04-25T07:48:43.895Z,20.90
2019-04-25T07:51:16.431Z,21.00
2019-04-25T07:53:46.720Z,21.00
2019-04-25T07:56:19.754Z,21.20
2019-04-25T07:58:52.702Z,21.20
2019-04-25T08:01:25.618Z,21.00
2019-04-25T08:03:56.092Z,21.30
2019-04-25T08:06:27.988Z,21.40
2019-04-25T08:09:01.169Z,21.50
2019-04-25T08:11:34.182Z,21.60
2019-04-25T08:14:10.419Z,21.60
2019-04-25T08:16:53.768Z,21.70
2019-04-25T08:19:28.722Z,21.70
2019-04-25T08:22:01.439Z,21.50
2019-04-25T08:24:37.259Z,21.40
2019-04-25T08:27:13.778Z,21.70
2019-04-25T08:29:48.521Z,22.00
2019-04-25T08:32:21.362Z,22.20
2019-04-25T08:34:54.282Z,22.10
2019-04-25T08:37:24.932Z,22.30
2019-04-25T08:39:58.361Z,22.10
2019-04-25T08:42:32.821Z,22.30
2019-04-25T08:45:08.062Z,22.20
2019-04-25T08:47:40.117Z,22.40
2019-04-25T08:50:26.785Z,22.70
2019-04-25T08:52:51.831Z,22.50
2019-04-25T08:55:42.053Z,22.60
2019-04-25T08:58:23.663Z,22.80
2019-04-25T09:01:14.171Z,22.80
2019-04-25T09:04:05.317Z,22.60
2019-04-25T09:06:36.496Z,22.70
2019-04-25T09:09:08.530Z,22.90
2019-04-25T09:11:40.054Z,22.90
2019-04-25T09:14:10.701Z,22.90
2019-04-25T09:16:44.195Z,22.90
2019-04-25T09:19:14.810Z,22.90
2019-04-25T09:21:49.146Z,23.00
2019-04-25T09:24:21.843Z,23.00
2019-04-25T09:26:52.014Z,23.10
2019-04-25T09:29:23.502Z,23.10
2019-04-25T09:31:54.249Z,23.20
2019-04-25T09:34:24.775Z,23.40
2019-04-25T09:36:57.144Z,23.30
2019-04-25T09:39:45.460Z,23.50
2019-04-25T09:42:16.003Z,23.40
2019-04-25T09:44:50.973Z,23.40
2019-04-25T09:47:21.279Z,23.30
2019-04-25T09:49:51.960Z,23.30
2019-04-25T09:52:24.459Z,23.30
2019-04-25T09:55:05.516Z,23.40
2019-04-25T09:57:41.087Z,23.40
2019-04-25T10:00:13.618Z,23.50
2019-04-25T10:02:44.622Z,23.70
2019-04-25T10:05:15.426Z,23.70
2019-04-25T10:07:46.362Z,23.80
2019-04-25T10:10:17.926Z,23.90
2019-04-25T10:12:48.212Z,23.80
2019-04-25T10:15:30.448Z,23.80
2019-04-25T10:18:01.013Z,23.70
2019-04-25T10:20:33.268Z,23.50
2019-04-25T10:23:05.051Z,23.40
2019-04-25T10:25:35.569Z,23.40
2019-04-25T10:28:07.156Z,23.70
2019-04-25T10:30:37.552Z,23.50
2019-04-25T10:33:08.050Z,23.60
2019-04-25T10:35:47.949Z,23.70
2019-04-25T10:38:10.569Z,23.70
2019-04-25T10:40:40.952Z,23.70
2019-04-25T10:43:11.705Z,23.80
2019-04-25T10:45:44.743Z,23.80
2019-04-25T10:48:15.898Z,23.70
2019-04-25T10:50:47.425Z,23.70
2019-04-25T10:53:18.631Z,23.70
2019-04-25T10:55:49.706Z,23.70
2019-04-25T10:58:20.461Z,23.80
2019-04-25T11:00:52.921Z,23.90
2019-04-25T11:03:33.836Z,24.00
2019-04-25T11:06:04.011Z,23.90
2019-04-25T11:08:34.698Z,23.90
2019-04-25T11:11:05.843Z,23.90
2019-04-25T11:13:36.659Z,24.00
2019-04-25T11:16:08.343Z,24.10
2019-04-25T11:18:38.789Z,24.00
2019-04-25T11:21:09.391Z,24.00
2019-04-25T11:23:40.520Z,23.90
2019-04-25T11:26:11.981Z,23.90
2019-04-25T11:28:45.125Z,23.90
2019-04-25T11:31:16.116Z,24.00
2019-04-25T11:33:46.588Z,24.10
2019-04-25T11:36:16.995Z,24.30
2019-04-25T11:39:05.118Z,24.30
2019-04-25T11:41:36.130Z,24.20
2019-04-25T11:44:07.228Z,24.30
2019-04-25T11:46:39.345Z,24.30
2019-04-25T11:49:09.744Z,24.40
2019-04-25T11:51:40.291Z,24.30
2019-04-25T11:54:10.651Z,24.30
2019-04-25T11:56:42.659Z,24.20
2019-04-25T11:59:13.735Z,24.40
2019-04-25T12:01:47.557Z,24.40
2019-04-25T12:04:17.762Z,24.40
2019-04-25T12:06:48.346Z,24.40
2019-04-25T12:09:19.877Z,24.30
2019-04-25T12:11:50.335Z,24.20
2019-04-25T12:14:20.633Z,24.30
2019-04-25T12:16:51.901Z,24.30
2019-04-25T12:19:33.099Z,24.30
2019-04-25T12:21:56.689Z,24.20
2019-04-25T12:24:27.490Z,24.40
2019-04-25T12:26:57.975Z,24.50
2019-04-25T12:29:28.282Z,24.50
2019-04-25T12:31:58.759Z,24.50
2019-04-25T12:34:29.098Z,24.40
2019-04-25T12:37:01.028Z,24.50
2019-04-25T12:39:31.398Z,24.50
2019-04-25T12:42:01.886Z,24.30
2019-04-25T12:44:50.876Z,24.40
2019-04-25T12:47:25.701Z,24.50
2019-04-25T12:49:56.156Z,24.40
2019-04-25T12:52:26.495Z,24.50
2019-04-25T12:55:01.956Z,24.30
2019-04-25T12:57:34.369Z,24.30
2019-04-25T13:00:06.006Z,24.30
2019-04-25T13:02:37.426Z,24.30
2019-04-25T13:05:08.128Z,24.30
2019-04-25T13:07:38.673Z,24.30
2019-04-25T13:10:15.372Z,24.30
2019-04-25T13:12:47.284Z,24.40
2019-04-25T13:15:19.275Z,24.40
2019-04-25T13:17:53.697Z,24.40
2019-04-25T13:20:24.199Z,24.50
2019-04-25T13:22:56.374Z,24.60
2019-04-25T13:25:27.175Z,24.60
2019-04-25T13:28:17.287Z,24.60
2019-04-25T13:31:04.100Z,24.30
2019-04-25T13:33:37.021Z,24.20
2019-04-25T13:36:09.181Z,24.20
2019-04-25T13:38:45.966Z,24.30
2019-04-25T13:41:21.460Z,24.30
2019-04-25T13:43:54.741Z,24.40
2019-04-25T13:46:27.706Z,24.30
2019-04-25T13:48:58.449Z,24.20
2019-04-25T13:51:28.896Z,24.20
2019-04-25T13:54:00.978Z,24.20
2019-04-25T13:56:40.383Z,24.30
2019-04-25T13:59:08.294Z,24.20
2019-04-25T14:01:38.834Z,24.30
2019-04-25T14:04:09.914Z,24.30
2019-04-25T14:06:40.478Z,24.30
2019-04-25T14:09:13.319Z,24.30
2019-04-25T14:11:48.371Z,24.10
2019-04-25T14:14:18.910Z,24.10
2019-04-25T14:16:59.929Z,24.10
2019-04-25T14:19:40.783Z,24.10
2019-04-25T14:22:15.854Z,24.10
2019-04-25T14:24:46.758Z,24.10
2019-04-25T14:27:18.452Z,24.10
2019-04-25T14:29:49.150Z,24.10
2019-04-25T14:32:20.230Z,24.10
2019-04-25T14:34:50.755Z,24.00
2019-04-25T14:37:22.141Z,24.00
2019-04-25T14:39:53.641Z,24.00
2019-04-25T14:42:26.398Z,23.90
2019-04-25T14:44:57.234Z,23.80
2019-04-25T14:47:29.553Z,23.80
2019-04-25T14:50:05.123Z,23.80
2019-04-25T14:52:35.656Z,23.70
2019-04-25T14:55:27.356Z,23.70
2019-04-25T14:57:59.618Z,23.70
2019-04-25T15:00:37.807Z,23.60
2019-04-25T15:03:08.182Z,23.50
2019-04-25T15:05:41.867Z,23.50
2019-04-25T15:08:11.084Z,23.40
2019-04-25T15:10:41.600Z,23.40
2019-04-25T15:13:12.677Z,23.30
2019-04-25T15:15:43.265Z,23.30
2019-04-25T15:18:13.849Z,23.30
2019-04-25T15:20:44.983Z,23.20
2019-04-25T15:23:15.431Z,23.20
2019-04-25T15:25:46.121Z,23.10
2019-04-25T15:28:16.604Z,23.10
2019-04-25T15:30:47.120Z,22.90
2019-04-25T15:33:17.640Z,22.80
2019-04-25T15:35:49.716Z,22.60
2019-04-25T15:38:27.676Z,22.50
2019-04-25T15:41:01.167Z,22.40
2019-04-25T15:43:51.457Z,22.20
2019-04-25T15:46:23.638Z,22.10
2019-04-25T15:48:54.036Z,22.00
2019-04-25T15:51:25.435Z,21.90
2019-04-25T15:53:56.061Z,21.80
2019-04-25T15:56:27.457Z,21.70
2019-04-25T15:58:59.042Z,21.60
2019-04-25T16:01:32.479Z,21.50
2019-04-25T16:04:04.737Z,21.30
2019-04-25T16:06:36.350Z,21.20
2019-04-25T16:09:10.508Z,21.10
2019-04-25T16:11:41.343Z,21.00
2019-04-25T16:14:11.874Z,20.90
2019-04-25T16:17:23.795Z,20.80
2019-04-25T16:19:51.704Z,20.70
2019-04-25T16:22:22.231Z,20.50
2019-04-25T16:24:52.968Z,20.40
2019-04-25T16:27:23.486Z,20.30
2019-04-25T16:29:53.887Z,20.20
2019-04-25T16:32:25.934Z,20.10
2019-04-25T16:34:56.202Z,20.00
2019-04-25T16:37:26.758Z,19.90
2019-04-25T16:40:00.208Z,19.80
2019-04-25T16:42:31.991Z,19.60
2019-04-25T16:45:02.382Z,19.50
2019-04-25T16:47:35.183Z,19.30
2019-04-25T16:50:06.982Z,19.10
2019-04-25T16:52:38.001Z,19.00
2019-04-25T16:55:14.111Z,18.80
2019-04-25T16:57:44.655Z,18.60
2019-04-25T17:00:22.776Z,18.50
2019-04-25T17:02:58.272Z,18.40
2019-04-25T17:05:35.644Z,18.30
2019-04-25T17:08:09.464Z,18.10
2019-04-25T17:10:39.963Z,18.00
2019-04-25T17:13:10.720Z,17.90
2019-04-25T17:15:45.640Z,17.80
2019-04-25T17:18:23.385Z,17.80
2019-04-25T17:21:07.340Z,17.70
2019-04-25T17:23:37.833Z,17.60
2019-04-25T17:26:08.285Z,17.50
2019-04-25T17:28:41.130Z,17.50
2019-04-25T17:31:28.914Z,17.50
2019-04-25T17:34:04.299Z,17.30
2019-04-25T17:36:50.885Z,17.10
2019-04-25T17:39:39.776Z,17.10
2019-04-25T17:42:12.055Z,17.20
2019-04-25T17:44:44.592Z,17.20
2019-04-25T17:47:15.013Z,17.20
2019-04-25T17:49:48.415Z,17.30
2019-04-25T17:52:18.888Z,17.30
2019-04-25T17:54:49.243Z,17.30
2019-04-25T17:57:23.035Z,17.40
2019-04-25T17:59:53.494Z,17.30
2019-04-25T18:02:24.066Z,17.40
2019-04-25T18:04:56.134Z,17.40
2019-04-25T18:07:28.134Z,17.40
2019-04-25T18:10:00.257Z,17.40
2019-04-25T18:12:30.836Z,17.30
2019-04-25T18:15:04.740Z,17.20
2019-04-25T18:17:36.597Z,17.20
2019-04-25T18:20:11.580Z,17.10
2019-04-25T18:22:49.294Z,17.10
2019-04-25T18:25:27.194Z,17.00
2019-04-25T18:28:03.110Z,16.90
2019-04-25T18:30:33.562Z,16.80
2019-04-25T18:33:12.479Z,16.80
2019-04-25T18:35:44.581Z,16.70
2019-04-25T18:38:25.577Z,16.60
2019-04-25T18:41:03.443Z,16.70
2019-04-25T18:43:36.657Z,16.70
2019-04-25T18:46:21.446Z,16.70
2019-04-25T18:49:06.352Z,16.60
2019-04-25T18:51:38.452Z,16.60
2019-04-25T18:54:10.623Z,16.50
2019-04-25T18:56:53.765Z,16.40
2019-04-25T18:59:48.115Z,16.40
2019-04-25T19:02:41.970Z,16.40
2019-04-25T19:05:17.218Z,16.30
2019-04-25T19:07:55.253Z,16.30
2019-04-25T19:17:02.145Z,16.30
2019-04-25T19:19:39.694Z,16.20
2019-04-25T19:22:13.376Z,16.10
2019-04-25T19:24:50.760Z,16.00
2019-04-25T19:27:23.838Z,16.00
2019-04-25T19:30:16.585Z,16.00
2019-04-25T19:32:49.277Z,16.00
2019-04-25T19:35:20.173Z,16.00
2019-04-25T19:37:59.080Z,16.00
2019-04-25T19:40:42.287Z,16.00
2019-04-25T19:43:19.027Z,16.00
2019-04-25T19:45:49.961Z,16.10
2019-04-25T19:48:29.847Z,16.10
2019-04-25T19:51:08.286Z,16.10
2019-04-25T19:53:43.115Z,16.30
2019-04-25T19:56:14.776Z,16.30
2019-04-25T19:58:47.210Z,16.40
2019-04-25T20:01:17.916Z,16.30
2019-04-25T20:04:03.817Z,16.30
2019-04-25T20:07:05.457Z,16.30
2019-04-25T20:10:00.868Z,16.40
2019-04-25T20:12:37.444Z,16.40
2019-04-25T20:15:21.196Z,16.30
2019-04-25T20:17:51.976Z,16.30
2019-04-25T20:20:23.634Z,16.20
2019-04-25T20:22:56.877Z,16.10
2019-04-25T20:25:29.944Z,16.10
2019-04-25T20:28:00.308Z,16.10
2019-04-25T20:30:31.663Z,16.00
2019-04-25T20:33:07.813Z,16.10
2019-04-25T20:35:44.867Z,16.00
2019-04-25T20:38:19.647Z,16.00
2019-04-25T20:40:51.751Z,16.00
2019-04-25T20:43:22.205Z,15.90
2019-04-25T20:45:54.486Z,15.80
2019-04-25T20:48:27.135Z,15.90
2019-04-25T20:50:57.657Z,15.90
2019-04-25T20:53:31.148Z,15.90
2019-04-25T20:56:05.718Z,16.00
2019-04-25T20:58:38.070Z,16.20
2019-04-25T21:01:08.527Z,16.30
2019-04-25T21:03:39.132Z,16.40
2019-04-25T21:06:13.054Z,16.40
2019-04-25T21:08:46.287Z,16.30
2019-04-25T21:11:17.223Z,16.30
2019-04-25T21:14:01.615Z,16.20
2019-04-25T21:16:42.971Z,16.20
2019-04-25T21:19:17.870Z,16.10
2019-04-25T21:21:48.236Z,16.00
2019-04-25T21:24:18.634Z,16.00
2019-04-25T21:26:51.675Z,15.90
2019-04-25T21:29:23.322Z,16.00
2019-04-25T21:31:57.065Z,16.00
2019-04-25T21:34:30.787Z,16.00
2019-04-25T21:37:02.155Z,16.00
2019-04-25T21:39:52.722Z,16.00
2019-04-25T21:42:32.602Z,16.00
2019-04-25T21:45:03.247Z,16.00
2019-04-25T21:47:35.638Z,16.00
2019-04-25T21:50:07.836Z,15.90
2019-04-25T21:52:38.435Z,15.90
2019-04-25T21:55:11.908Z,15.80
2019-04-25T21:57:42.766Z,15.80
2019-04-25T22:00:16.018Z,15.70
2019-04-25T22:02:56.049Z,15.70
2019-04-25T22:05:26.620Z,15.70
2019-04-25T22:07:58.286Z,15.70
2019-04-25T22:10:32.646Z,15.60
2019-04-25T22:13:13.514Z,15.60
2019-04-25T22:15:35.061Z,15.60
2019-04-25T22:18:06.719Z,15.60
2019-04-25T22:20:37.602Z,15.70
2019-04-25T22:23:08.204Z,15.50
2019-04-25T22:25:39.716Z,15.70
2019-04-25T22:28:10.611Z,15.70
2019-04-25T22:30:43.131Z,15.90
2019-04-25T22:33:18.182Z,16.00
2019-04-25T22:35:50.682Z,16.00
2019-04-25T22:38:21.311Z,16.00
2019-04-25T22:40:51.708Z,16.20
2019-04-25T22:43:23.659Z,16.30
2019-04-25T22:45:54.647Z,16.50
2019-04-25T22:48:26.824Z,16.60
2019-04-25T22:50:57.479Z,16.70
2019-04-25T22:53:35.199Z,16.70
2019-04-25T22:56:05.670Z,16.70
2019-04-25T22:58:36.238Z,16.70
2019-04-25T23:01:09.175Z,16.70
2019-04-25T23:03:41.497Z,16.80
2019-04-25T23:06:12.134Z,16.90
2019-04-25T23:08:42.583Z,16.80
2019-04-25T23:11:13.564Z,16.80
2019-04-25T23:13:44.613Z,16.80
2019-04-25T23:16:15.657Z,16.70
2019-04-25T23:18:46.058Z,16.70
2019-04-25T23:21:16.495Z,16.70
2019-04-25T23:23:46.988Z,16.70
2019-04-25T23:26:21.907Z,16.70
2019-04-25T23:28:56.499Z,16.80
2019-04-25T23:31:37.476Z,16.70
2019-04-25T23:34:09.273Z,16.70
2019-04-25T23:36:39.688Z,16.70
2019-04-25T23:39:11.261Z,16.80
2019-04-25T23:41:41.997Z,16.70
2019-04-25T23:44:12.474Z,16.60
2019-04-25T23:46:43.424Z,16.60
2019-04-25T23:49:14.763Z,16.50
2019-04-25T23:51:45.528Z,16.50
2019-04-25T23:54:17.135Z,16.40
2019-04-25T23:56:47.825Z,16.30
2019-04-25T23:59:20.476Z,16.30
